Serra da Mantiqueira, Brazil
Current Conditions -  °F | °C
As of 5:00 PM on Thursday 27 Nov 2014 (Local Time) from SBGW Reporting Station
Rain Showers Rain Showers  
Wind Chill: 81°   Ceiling: 2000
Heat Index: 83°   Visibility: 5mi
Dew Point: 68°   Wind: 8mph
Humidity: 65%   Direction: 250°WSW
Pressure: 29.85"   Gusts: NA
Location:  22.43°S, 45.45°W
Report Text: SBGW 271900Z 25007KT 8000 VCSH BKN020 FEW025TCU BKN080 27/20 Q1011
Loading
Personal Weather Stations






























Interactive Weather Map New forecast layout! Learn more

10-Day Weather Forecast

Advertisements
Track Severe Weather on mobile